Terminal Aerodrome Forecast
Issued by NWS Spokane, WA

Home | Current Version | Previous Version | Text Only | Print | Product List | Glossary On
Versions: 1 2 3 4 5 6 7 8 9 10 11 12 13 14 15 16 17 18 19 20 21 22 23 24 25 26 27 28 29 30
005
FTUS46 KOTX 282324
TAFLWS
TAF
KLWS 282324Z 2900/2924 33006KT P6SM VCSH BKN050 OVC120
     FM290200 14005KT P6SM SCT050 BKN150
     FM291000 12005KT P6SM -RA BKN050 OVC100
     FM291500 15009KT P6SM -RA OVC045=

USA.gov is the U.S. government's official web portal to all federal, state and local government web resources and services.